sensor_id;sensor_type;location;lat;lon;timestamp;P1;durP1;ratioP1;P2;durP2;ratioP2
1294;SDS011;640;48.310;11.728;2022-07-10T00:01:05;7.07;;;5.70;;
1294;SDS011;640;48.310;11.728;2022-07-10T00:03:33;7.20;;;5.13;;
1294;SDS011;640;48.310;11.728;2022-07-10T00:06:03;5.93;;;5.32;;
1294;SDS011;640;48.310;11.728;2022-07-10T00:08:33;5.88;;;4.70;;
1294;SDS011;640;48.310;11.728;2022-07-10T00:11:02;7.05;;;4.93;;
1294;SDS011;640;48.310;11.728;2022-07-10T00:13:31;6.40;;;5.80;;
1294;SDS011;640;48.310;11.728;2022-07-10T00:15:59;5.70;;;5.20;;
1294;SDS011;640;48.310;11.728;2022-07-10T00:18:29;7.00;;;5.65;;
1294;SDS011;640;48.310;11.728;2022-07-10T00:20:57;7.78;;;5.60;;
1294;SDS011;640;48.310;11.728;2022-07-10T00:23:27;7.47;;;4.97;;
1294;SDS011;640;48.310;11.728;2022-07-10T00:25:56;7.30;;;5.57;;
1294;SDS011;640;48.310;11.728;2022-07-10T00:28:24;8.65;;;6.47;;
1294;SDS011;640;48.310;11.728;2022-07-10T00:30:52;6.22;;;5.60;;
1294;SDS011;640;48.310;11.728;2022-07-10T00:33:21;7.22;;;5.90;;
1294;SDS011;640;48.310;11.728;2022-07-10T00:35:49;8.15;;;6.28;;
1294;SDS011;640;48.310;11.728;2022-07-10T00:38:17;7.65;;;6.35;;
1294;SDS011;640;48.310;11.728;2022-07-10T00:40:47;6.22;;;5.65;;
1294;SDS011;640;48.310;11.728;2022-07-10T00:43:16;6.53;;;5.93;;
1294;SDS011;640;48.310;11.728;2022-07-10T00:45:44;6.63;;;6.03;;
1294;SDS011;640;48.310;11.728;2022-07-10T00:48:12;6.65;;;6.05;;
1294;SDS011;640;48.310;11.728;2022-07-10T00:50:41;7.45;;;5.63;;
1294;SDS011;640;48.310;11.728;2022-07-10T00:53:10;6.90;;;6.30;;
1294;SDS011;640;48.310;11.728;2022-07-10T00:55:39;9.23;;;6.47;;
1294;SDS011;640;48.310;11.728;2022-07-10T00:58:09;7.97;;;7.18;;
1294;SDS011;640;48.310;11.728;2022-07-10T01:00:38;8.77;;;7.47;;
1294;SDS011;640;48.310;11.728;2022-07-10T01:03:07;7.53;;;6.82;;
1294;SDS011;640;48.310;11.728;2022-07-10T01:05:35;8.27;;;7.47;;
1294;SDS011;640;48.310;11.728;2022-07-10T01:08:05;7.68;;;6.93;;
1294;SDS011;640;48.310;11.728;2022-07-10T01:10:33;8.50;;;7.63;;
1294;SDS011;640;48.310;11.728;2022-07-10T01:13:02;8.52;;;7.63;;
1294;SDS011;640;48.310;11.728;2022-07-10T01:15:31;8.65;;;7.85;;
1294;SDS011;640;48.310;11.728;2022-07-10T01:18:02;8.50;;;7.78;;
1294;SDS011;640;48.310;11.728;2022-07-10T01:20:31;9.48;;;8.43;;
1294;SDS011;640;48.310;11.728;2022-07-10T01:23:02;8.90;;;8.10;;
1294;SDS011;640;48.310;11.728;2022-07-10T01:25:30;9.50;;;8.60;;
1294;SDS011;640;48.310;11.728;2022-07-10T01:27:59;10.60;;;9.35;;
1294;SDS011;640;48.310;11.728;2022-07-10T01:30:27;9.45;;;8.65;;
1294;SDS011;640;48.310;11.728;2022-07-10T01:32:56;9.88;;;8.93;;
1294;SDS011;640;48.310;11.728;2022-07-10T01:35:24;9.90;;;8.70;;
1294;SDS011;640;48.310;11.728;2022-07-10T01:37:52;10.75;;;9.15;;
1294;SDS011;640;48.310;11.728;2022-07-10T01:40:22;10.18;;;9.18;;
1294;SDS011;640;48.310;11.728;2022-07-10T01:42:51;9.90;;;8.87;;
1294;SDS011;640;48.310;11.728;2022-07-10T01:45:20;10.38;;;9.43;;
1294;SDS011;640;48.310;11.728;2022-07-10T01:47:49;9.93;;;8.93;;
1294;SDS011;640;48.310;11.728;2022-07-10T01:50:17;10.70;;;9.60;;
1294;SDS011;640;48.310;11.728;2022-07-10T01:52:46;10.05;;;9.05;;
1294;SDS011;640;48.310;11.728;2022-07-10T01:55:14;11.38;;;9.48;;
1294;SDS011;640;48.310;11.728;2022-07-10T01:57:44;9.73;;;8.73;;
1294;SDS011;640;48.310;11.728;2022-07-10T02:00:12;9.02;;;8.13;;
1294;SDS011;640;48.310;11.728;2022-07-10T02:02:41;9.45;;;8.55;;
1294;SDS011;640;48.310;11.728;2022-07-10T02:05:30;10.45;;;8.18;;
1294;SDS011;640;48.310;11.728;2022-07-10T02:07:57;8.98;;;8.07;;
1294;SDS011;640;48.310;11.728;2022-07-10T02:10:26;13.23;;;8.82;;
1294;SDS011;640;48.310;11.728;2022-07-10T02:12:56;10.95;;;9.25;;
1294;SDS011;640;48.310;11.728;2022-07-10T02:15:24;10.60;;;8.80;;
1294;SDS011;640;48.310;11.728;2022-07-10T02:17:53;9.63;;;8.45;;
1294;SDS011;640;48.310;11.728;2022-07-10T02:20:21;9.70;;;8.68;;
1294;SDS011;640;48.310;11.728;2022-07-10T02:22:50;10.73;;;8.93;;
1294;SDS011;640;48.310;11.728;2022-07-10T02:25:18;11.20;;;9.02;;
1294;SDS011;640;48.310;11.728;2022-07-10T02:27:47;11.27;;;9.90;;
1294;SDS011;640;48.310;11.728;2022-07-10T02:30:17;9.93;;;9.00;;
1294;SDS011;640;48.310;11.728;2022-07-10T02:32:45;9.60;;;8.63;;
1294;SDS011;640;48.310;11.728;2022-07-10T02:35:13;9.65;;;8.75;;
1294;SDS011;640;48.310;11.728;2022-07-10T02:37:42;9.65;;;8.65;;
1294;SDS011;640;48.310;11.728;2022-07-10T02:40:10;9.50;;;8.40;;
1294;SDS011;640;48.310;11.728;2022-07-10T02:42:39;9.65;;;8.73;;
1294;SDS011;640;48.310;11.728;2022-07-10T02:45:07;10.02;;;8.90;;
1294;SDS011;640;48.310;11.728;2022-07-10T02:47:38;9.65;;;8.77;;
1294;SDS011;640;48.310;11.728;2022-07-10T02:50:07;10.48;;;9.48;;
1294;SDS011;640;48.310;11.728;2022-07-10T02:52:36;10.25;;;9.25;;
1294;SDS011;640;48.310;11.728;2022-07-10T02:55:05;10.38;;;9.38;;
1294;SDS011;640;48.310;11.728;2022-07-10T02:57:34;9.75;;;8.80;;
1294;SDS011;640;48.310;11.728;2022-07-10T03:00:02;11.30;;;9.45;;
1294;SDS011;640;48.310;11.728;2022-07-10T03:02:31;9.75;;;8.77;;
1294;SDS011;640;48.310;11.728;2022-07-10T03:05:01;10.15;;;9.15;;
1294;SDS011;640;48.310;11.728;2022-07-10T03:07:30;9.55;;;8.68;;
1294;SDS011;640;48.310;11.728;2022-07-10T03:09:58;10.38;;;9.38;;
1294;SDS011;640;48.310;11.728;2022-07-10T03:12:27;10.10;;;8.52;;
1294;SDS011;640;48.310;11.728;2022-07-10T03:14:55;10.82;;;9.38;;
1294;SDS011;640;48.310;11.728;2022-07-10T03:17:23;9.80;;;8.77;;
1294;SDS011;640;48.310;11.728;2022-07-10T03:19:52;10.77;;;9.68;;
1294;SDS011;640;48.310;11.728;2022-07-10T03:22:21;11.13;;;10.02;;
1294;SDS011;640;48.310;11.728;2022-07-10T03:24:50;12.10;;;9.23;;
1294;SDS011;640;48.310;11.728;2022-07-10T03:27:18;9.85;;;8.60;;
1294;SDS011;640;48.310;11.728;2022-07-10T03:29:47;10.82;;;8.55;;
1294;SDS011;640;48.310;11.728;2022-07-10T03:32:15;11.18;;;9.23;;
1294;SDS011;640;48.310;11.728;2022-07-10T03:34:43;10.27;;;9.27;;
1294;SDS011;640;48.310;11.728;2022-07-10T03:37:12;12.88;;;9.07;;
1294;SDS011;640;48.310;11.728;2022-07-10T03:39:42;11.43;;;10.23;;
1294;SDS011;640;48.310;11.728;2022-07-10T03:42:10;10.68;;;9.57;;
1294;SDS011;640;48.310;11.728;2022-07-10T03:44:38;11.48;;;10.38;;
1294;SDS011;640;48.310;11.728;2022-07-10T03:47:07;10.55;;;9.27;;
1294;SDS011;640;48.310;11.728;2022-07-10T03:49:35;11.88;;;9.55;;
1294;SDS011;640;48.310;11.728;2022-07-10T03:52:05;13.65;;;9.27;;
1294;SDS011;640;48.310;11.728;2022-07-10T03:54:34;10.85;;;9.63;;
1294;SDS011;640;48.310;11.728;2022-07-10T03:57:04;10.43;;;9.43;;
1294;SDS011;640;48.310;11.728;2022-07-10T03:59:56;10.57;;;9.13;;
1294;SDS011;640;48.310;11.728;2022-07-10T04:02:24;9.85;;;8.95;;
1294;SDS011;640;48.310;11.728;2022-07-10T04:04:52;10.43;;;9.25;;
1294;SDS011;640;48.310;11.728;2022-07-10T04:07:21;10.30;;;9.30;;
1294;SDS011;640;48.310;11.728;2022-07-10T04:09:50;10.18;;;9.18;;
1294;SDS011;640;48.310;11.728;2022-07-10T04:12:19;9.35;;;8.45;;
1294;SDS011;640;48.310;11.728;2022-07-10T04:14:48;8.90;;;8.05;;
1294;SDS011;640;48.310;11.728;2022-07-10T04:17:18;10.07;;;7.97;;
1294;SDS011;640;48.310;11.728;2022-07-10T04:19:46;7.30;;;6.32;;
1294;SDS011;640;48.310;11.728;2022-07-10T04:22:14;8.18;;;7.38;;
1294;SDS011;640;48.310;11.728;2022-07-10T04:24:43;8.68;;;7.80;;
1294;SDS011;640;48.310;11.728;2022-07-10T04:27:11;8.90;;;8.05;;
1294;SDS011;640;48.310;11.728;2022-07-10T04:29:41;8.80;;;7.50;;
1294;SDS011;640;48.310;11.728;2022-07-10T04:32:09;10.55;;;9.45;;
1294;SDS011;640;48.310;11.728;2022-07-10T04:34:38;9.23;;;8.35;;
1294;SDS011;640;48.310;11.728;2022-07-10T04:37:06;7.72;;;7.00;;
1294;SDS011;640;48.310;11.728;2022-07-10T04:39:35;8.55;;;7.78;;
1294;SDS011;640;48.310;11.728;2022-07-10T04:42:04;9.57;;;7.55;;
1294;SDS011;640;48.310;11.728;2022-07-10T04:44:33;9.15;;;7.57;;
1294;SDS011;640;48.310;11.728;2022-07-10T04:47:04;9.05;;;8.25;;
1294;SDS011;640;48.310;11.728;2022-07-10T04:52:01;8.27;;;7.53;;
1294;SDS011;640;48.310;11.728;2022-07-10T04:54:30;9.60;;;8.70;;
1294;SDS011;640;48.310;11.728;2022-07-10T04:56:58;9.23;;;8.30;;
1294;SDS011;640;48.310;11.728;2022-07-10T04:59:27;8.80;;;8.00;;
1294;SDS011;640;48.310;11.728;2022-07-10T05:01:55;8.77;;;8.00;;
1294;SDS011;640;48.310;11.728;2022-07-10T05:04:25;8.68;;;7.78;;
1294;SDS011;640;48.310;11.728;2022-07-10T05:06:54;9.45;;;8.55;;
1294;SDS011;640;48.310;11.728;2022-07-10T05:09:22;9.55;;;8.63;;
1294;SDS011;640;48.310;11.728;2022-07-10T05:11:50;9.73;;;8.82;;
1294;SDS011;640;48.310;11.728;2022-07-10T05:14:19;9.85;;;8.95;;
1294;SDS011;640;48.310;11.728;2022-07-10T05:16:47;9.65;;;8.50;;
1294;SDS011;640;48.310;11.728;2022-07-10T05:19:15;10.60;;;9.60;;
1294;SDS011;640;48.310;11.728;2022-07-10T05:21:45;10.40;;;9.32;;
1294;SDS011;640;48.310;11.728;2022-07-10T05:24:13;10.60;;;9.68;;
1294;SDS011;640;48.310;11.728;2022-07-10T05:26:42;9.75;;;8.85;;
1294;SDS011;640;48.310;11.728;2022-07-10T05:29:10;12.20;;;9.60;;
1294;SDS011;640;48.310;11.728;2022-07-10T05:31:38;9.82;;;8.93;;
1294;SDS011;640;48.310;11.728;2022-07-10T05:34:07;10.18;;;9.13;;
1294;SDS011;640;48.310;11.728;2022-07-10T05:36:35;10.75;;;9.30;;
1294;SDS011;640;48.310;11.728;2022-07-10T05:39:05;11.05;;;10.05;;
1294;SDS011;640;48.310;11.728;2022-07-10T05:41:33;12.40;;;10.50;;
1294;SDS011;640;48.310;11.728;2022-07-10T05:44:02;12.30;;;11.05;;
1294;SDS011;640;48.310;11.728;2022-07-10T05:46:31;10.60;;;9.48;;
1294;SDS011;640;48.310;11.728;2022-07-10T05:48:59;10.45;;;9.38;;
1294;SDS011;640;48.310;11.728;2022-07-10T05:51:28;10.30;;;9.30;;
1294;SDS011;640;48.310;11.728;2022-07-10T05:54:03;11.65;;;10.55;;
1294;SDS011;640;48.310;11.728;2022-07-10T05:56:33;13.13;;;10.48;;
1294;SDS011;640;48.310;11.728;2022-07-10T05:59:01;11.23;;;10.13;;
1294;SDS011;640;48.310;11.728;2022-07-10T06:01:30;11.27;;;9.73;;
1294;SDS011;640;48.310;11.728;2022-07-10T06:03:58;11.23;;;10.07;;
1294;SDS011;640;48.310;11.728;2022-07-10T06:06:27;10.57;;;9.57;;
1294;SDS011;640;48.310;11.728;2022-07-10T06:08:55;12.48;;;11.00;;
1294;SDS011;640;48.310;11.728;2022-07-10T06:11:25;13.15;;;11.95;;
1294;SDS011;640;48.310;11.728;2022-07-10T06:13:53;11.77;;;10.57;;
1294;SDS011;640;48.310;11.728;2022-07-10T06:16:21;13.65;;;12.35;;
1294;SDS011;640;48.310;11.728;2022-07-10T06:18:50;12.10;;;11.00;;
1294;SDS011;640;48.310;11.728;2022-07-10T06:21:18;12.98;;;10.80;;
1294;SDS011;640;48.310;11.728;2022-07-10T06:23:48;12.13;;;11.00;;
1294;SDS011;640;48.310;11.728;2022-07-10T06:26:18;12.95;;;11.85;;
1294;SDS011;640;48.310;11.728;2022-07-10T06:28:47;13.63;;;12.45;;
1294;SDS011;640;48.310;11.728;2022-07-10T06:31:16;13.02;;;11.80;;
1294;SDS011;640;48.310;11.728;2022-07-10T06:33:44;13.85;;;12.57;;
1294;SDS011;640;48.310;11.728;2022-07-10T06:36:13;12.57;;;11.48;;
1294;SDS011;640;48.310;11.728;2022-07-10T06:38:41;13.57;;;12.38;;
1294;SDS011;640;48.310;11.728;2022-07-10T06:41:09;13.10;;;11.90;;
1294;SDS011;640;48.310;11.728;2022-07-10T06:43:38;13.00;;;11.52;;
1294;SDS011;640;48.310;11.728;2022-07-10T06:46:07;12.95;;;11.60;;
1294;SDS011;640;48.310;11.728;2022-07-10T06:48:36;13.43;;;12.23;;
1294;SDS011;640;48.310;11.728;2022-07-10T06:51:06;12.48;;;11.27;;
1294;SDS011;640;48.310;11.728;2022-07-10T06:53:43;19.67;;;13.27;;
1294;SDS011;640;48.310;11.728;2022-07-10T06:56:12;13.88;;;12.20;;
1294;SDS011;640;48.310;11.728;2022-07-10T06:58:42;13.18;;;11.90;;
1294;SDS011;640;48.310;11.728;2022-07-10T07:01:12;12.68;;;11.48;;
1294;SDS011;640;48.310;11.728;2022-07-10T07:03:40;13.05;;;11.82;;
1294;SDS011;640;48.310;11.728;2022-07-10T07:06:08;12.13;;;10.93;;
1294;SDS011;640;48.310;11.728;2022-07-10T07:08:37;13.27;;;11.32;;
1294;SDS011;640;48.310;11.728;2022-07-10T07:11:06;12.48;;;11.48;;
1294;SDS011;640;48.310;11.728;2022-07-10T07:13:34;12.88;;;11.85;;
1294;SDS011;640;48.310;11.728;2022-07-10T07:16:03;12.60;;;11.43;;
1294;SDS011;640;48.310;11.728;2022-07-10T07:18:36;12.75;;;11.45;;
1294;SDS011;640;48.310;11.728;2022-07-10T07:21:14;12.45;;;11.40;;
1294;SDS011;640;48.310;11.728;2022-07-10T07:24:00;12.18;;;11.07;;
1294;SDS011;640;48.310;11.728;2022-07-10T07:26:28;12.95;;;11.77;;
1294;SDS011;640;48.310;11.728;2022-07-10T07:28:56;13.65;;;12.55;;
1294;SDS011;640;48.310;11.728;2022-07-10T07:31:25;13.95;;;12.73;;
1294;SDS011;640;48.310;11.728;2022-07-10T07:33:55;14.38;;;13.00;;
1294;SDS011;640;48.310;11.728;2022-07-10T07:36:23;12.10;;;11.00;;
1294;SDS011;640;48.310;11.728;2022-07-10T07:38:52;12.02;;;11.02;;
1294;SDS011;640;48.310;11.728;2022-07-10T07:41:20;11.90;;;10.93;;
1294;SDS011;640;48.310;11.728;2022-07-10T07:43:49;11.55;;;10.43;;
1294;SDS011;640;48.310;11.728;2022-07-10T07:46:17;10.63;;;9.82;;
1294;SDS011;640;48.310;11.728;2022-07-10T07:48:46;10.68;;;9.77;;
1294;SDS011;640;48.310;11.728;2022-07-10T07:51:16;11.75;;;9.55;;
1294;SDS011;640;48.310;11.728;2022-07-10T07:53:45;9.90;;;8.52;;
1294;SDS011;640;48.310;11.728;2022-07-10T07:56:13;10.63;;;9.73;;
1294;SDS011;640;48.310;11.728;2022-07-10T07:58:43;9.60;;;8.70;;
1294;SDS011;640;48.310;11.728;2022-07-10T08:01:11;10.98;;;9.88;;
1294;SDS011;640;48.310;11.728;2022-07-10T08:03:39;9.43;;;8.20;;
1294;SDS011;640;48.310;11.728;2022-07-10T08:06:29;7.75;;;7.05;;
1294;SDS011;640;48.310;11.728;2022-07-10T08:08:58;8.18;;;7.57;;
1294;SDS011;640;48.310;11.728;2022-07-10T08:11:26;6.93;;;6.22;;
1294;SDS011;640;48.310;11.728;2022-07-10T08:13:54;8.27;;;6.00;;
1294;SDS011;640;48.310;11.728;2022-07-10T08:16:23;8.20;;;5.28;;
1294;SDS011;640;48.310;11.728;2022-07-10T08:18:51;8.90;;;6.00;;
1294;SDS011;640;48.310;11.728;2022-07-10T08:21:19;5.45;;;4.88;;
1294;SDS011;640;48.310;11.728;2022-07-10T08:23:50;8.00;;;6.65;;
1294;SDS011;640;48.310;11.728;2022-07-10T08:26:20;6.28;;;5.55;;
1294;SDS011;640;48.310;11.728;2022-07-10T08:28:48;6.30;;;5.07;;
1294;SDS011;640;48.310;11.728;2022-07-10T08:31:16;7.88;;;6.05;;
1294;SDS011;640;48.310;11.728;2022-07-10T08:33:45;7.00;;;6.18;;
1294;SDS011;640;48.310;11.728;2022-07-10T08:36:14;6.97;;;6.30;;
1294;SDS011;640;48.310;11.728;2022-07-10T08:39:04;5.88;;;5.30;;
1294;SDS011;640;48.310;11.728;2022-07-10T08:41:33;7.80;;;5.53;;
1294;SDS011;640;48.310;11.728;2022-07-10T08:44:03;7.10;;;5.90;;
1294;SDS011;640;48.310;11.728;2022-07-10T08:46:32;8.13;;;5.65;;
1294;SDS011;640;48.310;11.728;2022-07-10T08:49:01;7.35;;;5.70;;
1294;SDS011;640;48.310;11.728;2022-07-10T08:51:35;6.38;;;5.70;;
1294;SDS011;640;48.310;11.728;2022-07-10T08:54:06;5.32;;;4.93;;
1294;SDS011;640;48.310;11.728;2022-07-10T08:56:36;7.22;;;5.75;;
1294;SDS011;640;48.310;11.728;2022-07-10T08:59:05;8.10;;;5.45;;
1294;SDS011;640;48.310;11.728;2022-07-10T09:01:33;5.88;;;5.20;;
1294;SDS011;640;48.310;11.728;2022-07-10T09:04:02;6.45;;;5.78;;
1294;SDS011;640;48.310;11.728;2022-07-10T09:06:30;5.93;;;5.38;;
1294;SDS011;640;48.310;11.728;2022-07-10T09:09:00;7.88;;;6.03;;
1294;SDS011;640;48.310;11.728;2022-07-10T09:11:31;6.25;;;5.55;;
1294;SDS011;640;48.310;11.728;2022-07-10T09:14:00;6.57;;;5.72;;
1294;SDS011;640;48.310;11.728;2022-07-10T09:16:32;6.85;;;5.70;;
1294;SDS011;640;48.310;11.728;2022-07-10T09:21:45;5.93;;;5.43;;
1294;SDS011;640;48.310;11.728;2022-07-10T09:24:14;6.25;;;4.95;;
1294;SDS011;640;48.310;11.728;2022-07-10T09:26:57;4.50;;;4.13;;
1294;SDS011;640;48.310;11.728;2022-07-10T09:29:27;5.55;;;4.65;;
1294;SDS011;640;48.310;11.728;2022-07-10T09:31:56;4.95;;;4.45;;
1294;SDS011;640;48.310;11.728;2022-07-10T09:34:35;5.55;;;4.88;;
1294;SDS011;640;48.310;11.728;2022-07-10T09:37:19;5.07;;;4.32;;
1294;SDS011;640;48.310;11.728;2022-07-10T09:39:58;5.35;;;4.95;;
1294;SDS011;640;48.310;11.728;2022-07-10T09:42:30;6.95;;;4.97;;
1294;SDS011;640;48.310;11.728;2022-07-10T09:45:15;4.85;;;4.40;;
1294;SDS011;640;48.310;11.728;2022-07-10T09:47:45;4.63;;;4.22;;
1294;SDS011;640;48.310;11.728;2022-07-10T09:50:24;4.93;;;4.43;;
1294;SDS011;640;48.310;11.728;2022-07-10T09:55:22;5.10;;;4.55;;
1294;SDS011;640;48.310;11.728;2022-07-10T09:57:56;5.60;;;4.75;;
1294;SDS011;640;48.310;11.728;2022-07-10T10:00:26;5.47;;;4.82;;
1294;SDS011;640;48.310;11.728;2022-07-10T10:02:56;6.32;;;5.85;;
1294;SDS011;640;48.310;11.728;2022-07-10T10:08:09;5.60;;;4.80;;
1294;SDS011;640;48.310;11.728;2022-07-10T10:10:43;5.72;;;5.22;;
1294;SDS011;640;48.310;11.728;2022-07-10T10:13:15;6.38;;;4.88;;
1294;SDS011;640;48.310;11.728;2022-07-10T10:15:44;6.28;;;5.72;;
1294;SDS011;640;48.310;11.728;2022-07-10T10:20:44;5.88;;;5.18;;
1294;SDS011;640;48.310;11.728;2022-07-10T10:23:13;5.55;;;5.05;;
1294;SDS011;640;48.310;11.728;2022-07-10T10:25:44;5.32;;;4.93;;
1294;SDS011;640;48.310;11.728;2022-07-10T10:28:13;5.57;;;5.07;;
1294;SDS011;640;48.310;11.728;2022-07-10T10:30:44;6.47;;;5.53;;
1294;SDS011;640;48.310;11.728;2022-07-10T10:36:14;5.43;;;5.03;;
1294;SDS011;640;48.310;11.728;2022-07-10T10:39:08;8.02;;;7.35;;
1294;SDS011;640;48.310;11.728;2022-07-10T10:41:40;6.90;;;6.40;;
1294;SDS011;640;48.310;11.728;2022-07-10T10:44:24;6.20;;;5.18;;
1294;SDS011;640;48.310;11.728;2022-07-10T10:46:56;7.22;;;6.63;;
1294;SDS011;640;48.310;11.728;2022-07-10T10:52:18;7.97;;;5.78;;
1294;SDS011;640;48.310;11.728;2022-07-10T10:55:01;5.22;;;4.80;;
1294;SDS011;640;48.310;11.728;2022-07-10T10:57:36;6.43;;;5.82;;
1294;SDS011;640;48.310;11.728;2022-07-10T11:03:11;6.28;;;5.68;;
1294;SDS011;640;48.310;11.728;2022-07-10T11:05:42;5.05;;;4.65;;
1294;SDS011;640;48.310;11.728;2022-07-10T11:08:12;4.82;;;4.43;;
1294;SDS011;640;48.310;11.728;2022-07-10T11:10:42;4.53;;;3.75;;
1294;SDS011;640;48.310;11.728;2022-07-10T11:13:15;6.00;;;4.85;;
1294;SDS011;640;48.310;11.728;2022-07-10T11:15:45;5.25;;;4.95;;
1294;SDS011;640;48.310;11.728;2022-07-10T11:20:44;4.43;;;4.03;;
1294;SDS011;640;48.310;11.728;2022-07-10T11:26:07;4.88;;;4.38;;
1294;SDS011;640;48.310;11.728;2022-07-10T11:28:41;6.13;;;4.03;;
1294;SDS011;640;48.310;11.728;2022-07-10T11:33:46;3.80;;;3.50;;
1294;SDS011;640;48.310;11.728;2022-07-10T11:36:15;4.40;;;4.00;;
1294;SDS011;640;48.310;11.728;2022-07-10T11:38:44;3.72;;;3.30;;
1294;SDS011;640;48.310;11.728;2022-07-10T11:41:18;4.68;;;4.28;;
1294;SDS011;640;48.310;11.728;2022-07-10T11:43:48;4.97;;;3.92;;
1294;SDS011;640;48.310;11.728;2022-07-10T11:46:17;8.27;;;3.45;;
1294;SDS011;640;48.310;11.728;2022-07-10T11:48:47;5.47;;;5.05;;
1294;SDS011;640;48.310;11.728;2022-07-10T11:51:26;6.10;;;5.00;;
1294;SDS011;640;48.310;11.728;2022-07-10T11:53:56;4.78;;;4.13;;
1294;SDS011;640;48.310;11.728;2022-07-10T11:58:57;4.82;;;2.92;;
1294;SDS011;640;48.310;11.728;2022-07-10T12:01:26;5.28;;;4.88;;
1294;SDS011;640;48.310;11.728;2022-07-10T12:03:56;4.68;;;4.28;;
1294;SDS011;640;48.310;11.728;2022-07-10T12:06:25;3.05;;;2.63;;
1294;SDS011;640;48.310;11.728;2022-07-10T12:08:54;4.03;;;2.90;;
1294;SDS011;640;48.310;11.728;2022-07-10T12:11:23;4.63;;;4.32;;
1294;SDS011;640;48.310;11.728;2022-07-10T12:13:52;3.67;;;3.22;;
1294;SDS011;640;48.310;11.728;2022-07-10T12:16:21;4.55;;;4.15;;
1294;SDS011;640;48.310;11.728;2022-07-10T12:18:50;3.55;;;3.30;;
1294;SDS011;640;48.310;11.728;2022-07-10T12:21:19;4.47;;;3.40;;
1294;SDS011;640;48.310;11.728;2022-07-10T12:23:48;4.78;;;4.47;;
1294;SDS011;640;48.310;11.728;2022-07-10T12:26:17;3.95;;;3.45;;
1294;SDS011;640;48.310;11.728;2022-07-10T12:28:53;4.07;;;3.10;;
1294;SDS011;640;48.310;11.728;2022-07-10T12:31:23;3.17;;;2.88;;
1294;SDS011;640;48.310;11.728;2022-07-10T12:33:56;5.63;;;3.20;;
1294;SDS011;640;48.310;11.728;2022-07-10T12:36:41;4.05;;;3.50;;
1294;SDS011;640;48.310;11.728;2022-07-10T12:39:10;4.00;;;3.10;;
1294;SDS011;640;48.310;11.728;2022-07-10T12:41:58;3.10;;;2.80;;
1294;SDS011;640;48.310;11.728;2022-07-10T12:44:33;3.00;;;2.80;;
1294;SDS011;640;48.310;11.728;2022-07-10T12:47:03;4.78;;;3.90;;
1294;SDS011;640;48.310;11.728;2022-07-10T12:49:51;5.00;;;4.50;;
1294;SDS011;640;48.310;11.728;2022-07-10T12:52:21;5.05;;;4.55;;
1294;SDS011;640;48.310;11.728;2022-07-10T12:55:06;3.60;;;3.33;;
1294;SDS011;640;48.310;11.728;2022-07-10T12:57:46;5.20;;;4.80;;
1294;SDS011;640;48.310;11.728;2022-07-10T13:00:20;5.15;;;4.65;;
1294;SDS011;640;48.310;11.728;2022-07-10T13:02:56;4.38;;;2.38;;
1294;SDS011;640;48.310;11.728;2022-07-10T13:05:29;4.20;;;3.80;;
1294;SDS011;640;48.310;11.728;2022-07-10T13:08:08;4.30;;;3.83;;
1294;SDS011;640;48.310;11.728;2022-07-10T13:13:08;3.10;;;2.83;;
1294;SDS011;640;48.310;11.728;2022-07-10T13:15:38;2.28;;;1.92;;
1294;SDS011;640;48.310;11.728;2022-07-10T13:18:13;6.38;;;3.80;;
1294;SDS011;640;48.310;11.728;2022-07-10T13:20:44;5.38;;;3.13;;
1294;SDS011;640;48.310;11.728;2022-07-10T13:23:13;3.85;;;3.42;;
1294;SDS011;640;48.310;11.728;2022-07-10T13:25:42;5.20;;;4.20;;
1294;SDS011;640;48.310;11.728;2022-07-10T13:28:10;4.38;;;3.88;;
1294;SDS011;640;48.310;11.728;2022-07-10T13:30:41;3.10;;;2.65;;
1294;SDS011;640;48.310;11.728;2022-07-10T13:33:09;4.40;;;3.05;;
1294;SDS011;640;48.310;11.728;2022-07-10T13:35:38;4.35;;;4.05;;
1294;SDS011;640;48.310;11.728;2022-07-10T13:38:07;4.45;;;4.07;;
1294;SDS011;640;48.310;11.728;2022-07-10T13:40:42;3.60;;;3.30;;
1294;SDS011;640;48.310;11.728;2022-07-10T13:43:12;4.47;;;3.15;;
1294;SDS011;640;48.310;11.728;2022-07-10T13:45:45;3.85;;;3.47;;
1294;SDS011;640;48.310;11.728;2022-07-10T13:48:14;4.45;;;2.78;;
1294;SDS011;640;48.310;11.728;2022-07-10T13:50:44;3.80;;;1.30;;
1294;SDS011;640;48.310;11.728;2022-07-10T13:53:14;3.85;;;1.80;;
1294;SDS011;640;48.310;11.728;2022-07-10T13:55:43;1.60;;;1.45;;
1294;SDS011;640;48.310;11.728;2022-07-10T13:58:12;2.90;;;1.30;;
1294;SDS011;640;48.310;11.728;2022-07-10T14:00:41;1.98;;;1.10;;
1294;SDS011;640;48.310;11.728;2022-07-10T14:03:11;4.20;;;1.30;;
1294;SDS011;640;48.310;11.728;2022-07-10T14:05:40;1.90;;;1.13;;
1294;SDS011;640;48.310;11.728;2022-07-10T14:08:08;2.72;;;1.20;;
1294;SDS011;640;48.310;11.728;2022-07-10T14:10:37;2.42;;;1.38;;
1294;SDS011;640;48.310;11.728;2022-07-10T14:13:05;2.70;;;1.30;;
1294;SDS011;640;48.310;11.728;2022-07-10T14:15:38;2.25;;;1.30;;
1294;SDS011;640;48.310;11.728;2022-07-10T14:18:07;2.83;;;1.35;;
1294;SDS011;640;48.310;11.728;2022-07-10T14:20:37;3.45;;;1.48;;
1294;SDS011;640;48.310;11.728;2022-07-10T14:23:23;1.95;;;1.40;;
1294;SDS011;640;48.310;11.728;2022-07-10T14:25:52;1.98;;;1.85;;
1294;SDS011;640;48.310;11.728;2022-07-10T14:28:21;2.60;;;1.60;;
1294;SDS011;640;48.310;11.728;2022-07-10T14:30:49;2.55;;;1.50;;
1294;SDS011;640;48.310;11.728;2022-07-10T14:33:18;2.65;;;1.55;;
1294;SDS011;640;48.310;11.728;2022-07-10T14:35:48;2.38;;;1.35;;
1294;SDS011;640;48.310;11.728;2022-07-10T14:38:16;2.30;;;1.70;;
1294;SDS011;640;48.310;11.728;2022-07-10T14:40:45;1.33;;;0.90;;
1294;SDS011;640;48.310;11.728;2022-07-10T14:43:13;2.50;;;1.02;;
1294;SDS011;640;48.310;11.728;2022-07-10T14:45:41;3.13;;;1.90;;
1294;SDS011;640;48.310;11.728;2022-07-10T14:48:16;2.97;;;1.60;;
1294;SDS011;640;48.310;11.728;2022-07-10T14:50:45;2.40;;;1.00;;
1294;SDS011;640;48.310;11.728;2022-07-10T14:53:14;2.65;;;1.20;;
1294;SDS011;640;48.310;11.728;2022-07-10T14:55:43;2.10;;;1.13;;
1294;SDS011;640;48.310;11.728;2022-07-10T14:58:12;2.97;;;1.20;;
1294;SDS011;640;48.310;11.728;2022-07-10T15:00:40;2.55;;;1.10;;
1294;SDS011;640;48.310;11.728;2022-07-10T15:03:09;3.47;;;1.30;;
1294;SDS011;640;48.310;11.728;2022-07-10T15:05:38;3.53;;;1.40;;
1294;SDS011;640;48.310;11.728;2022-07-10T15:08:06;2.85;;;1.00;;
1294;SDS011;640;48.310;11.728;2022-07-10T15:10:36;2.67;;;0.85;;
1294;SDS011;640;48.310;11.728;2022-07-10T15:13:06;2.40;;;0.90;;
1294;SDS011;640;48.310;11.728;2022-07-10T15:15:34;1.83;;;0.80;;
1294;SDS011;640;48.310;11.728;2022-07-10T15:18:03;4.57;;;4.28;;
1294;SDS011;640;48.310;11.728;2022-07-10T15:20:31;3.67;;;3.38;;
1294;SDS011;640;48.310;11.728;2022-07-10T15:23:00;3.28;;;1.55;;
1294;SDS011;640;48.310;11.728;2022-07-10T15:25:28;4.55;;;2.60;;
1294;SDS011;640;48.310;11.728;2022-07-10T15:27:58;4.15;;;3.15;;
1294;SDS011;640;48.310;11.728;2022-07-10T15:30:29;2.67;;;2.47;;
1294;SDS011;640;48.310;11.728;2022-07-10T15:32:57;3.42;;;3.13;;
1294;SDS011;640;48.310;11.728;2022-07-10T15:35:25;4.68;;;4.25;;
1294;SDS011;640;48.310;11.728;2022-07-10T15:37:54;3.60;;;3.30;;
1294;SDS011;640;48.310;11.728;2022-07-10T15:40:26;4.55;;;3.72;;
1294;SDS011;640;48.310;11.728;2022-07-10T15:42:55;5.00;;;4.53;;
1294;SDS011;640;48.310;11.728;2022-07-10T15:45:25;3.03;;;0.90;;
1294;SDS011;640;48.310;11.728;2022-07-10T15:47:54;2.53;;;1.00;;
1294;SDS011;640;48.310;11.728;2022-07-10T15:50:23;2.65;;;0.80;;
1294;SDS011;640;48.310;11.728;2022-07-10T15:52:58;1.17;;;0.90;;
1294;SDS011;640;48.310;11.728;2022-07-10T15:55:26;2.47;;;0.80;;
1294;SDS011;640;48.310;11.728;2022-07-10T15:57:54;1.80;;;0.82;;
1294;SDS011;640;48.310;11.728;2022-07-10T16:00:23;1.48;;;0.75;;
1294;SDS011;640;48.310;11.728;2022-07-10T16:02:53;1.98;;;0.80;;